Pagrindinis puslapis
METAR-TAF:

METAR-TAF

Oro uostai :

Nikosija, Kipras

platuma: 35-09N, ilguma: 033-30E, Aukštis: 91 m

Dabartinis oras

Ataskaita buvo paskelbta 25 minutes, ne 10:50 UTC
Vėjas 7 kt iš Vakarų, svyruoja nuo Vakarų/Pietvakarių ir Šiaurės/Šiaurės Vakarų
Temperatūra 19°C
Drėgmė 37%
Slėgis 1017 hPa
Matomumas 10 km arba daugiau
Mažai debesys ne aukštis 2500 ft

METAR: LCEN 071050Z 28007KT 240V330 9999 FEW025 19/04 Q1017 NOSIG

Laikas: 13:15 (11:15 UTC)

Prognozė

Ataskaita buvo paskelbta 6 valandos ir 35 minutes, ne 04:40 UTC
Prognozė galioja nuo 07 metu 06 UTC su 08 metu 06 UTC
Vėjas 15 kt iš Vakarų
Matomumas 10 km arba daugiau
Mažai debesys ne aukštis 2500 ft

TAF: LCEN 070440Z 0706/0806 28015KT 9999 FEW025

Orai ataskaitas ir orų prognozės (METAR, TAF).

turimą stotys yra geltonos ir raudonos taškus žemėlapyje.

Perkelti pele per norėdami pamatyti stoties vardą.

Tada spustelėkite, norėdami matyti oro stebėjimo ir prognozės.

Norėdami pakeisti žemėlapį: spustelėkite ant žalios mygtukų su juodo kryžiaus žemyn,; žalią mygtuką su brūkšneliu, jei norite nutolinti; arba žalių rodyklių gretimoms žemėlapius.


METAR-TAF: